Maxal Raise — V3VZ4 — position and weather

sailwx.info

Track history (hours):
 
Tides and Currents Weather Stations Pressure Air Temp Water Temp Dewpoint Dewpoint Depression Visibility Wind Speed Wind Dir Waves Ship Positions

Maxal Raise

Last reported at 2017-Nov-24 21:09 UTC. Time now 2017-Nov-25 00:25 UTC.
Position N 46°36' E 031°42'.

Length 89 m; draft 5 m.

Type: Cargo ship. MMSI: 312297000.

Date/timePositionNaut miles runAvg speedWind from/ knotsBaromVisibWave heightAir tempDewpointWater temp
2017-Nov-24 21:09N 46°36' E 031°42'2 8.1
2017-Nov-24 20:51N 46°36' E 031°45'3 7.8
2017-Nov-24 20:30N 46°36' E 031°49'4 7.8
2017-Nov-24 20:00N 46°38' E 031°54'4 7.4
2017-Nov-24 19:30N 46°41' E 031°56'3 6.9
2017-Nov-24 19:00N 46°45' E 031°54'4 7.2
2017-Nov-24 18:30N 46°48' E 031°53'4 7.9
2017-Nov-24 18:00N 46°51' E 031°57'4 7.8
2017-Nov-24 17:30N 46°54' E 032°01'3 4.8
2017-Nov-24 16:58N 46°57' E 032°00'0 0.0
2017-Nov-24 16:28N 46°57' E 032°00'0 0.0
2017-Nov-24 15:58N 46°57' E 032°00'0 0.0
2017-Nov-24 15:28N 46°57' E 032°00'0 0.0
2017-Nov-24 14:58N 46°57' E 032°00'0 0.0
2017-Nov-24 14:28N 46°57' E 032°00'0 0.0
2017-Nov-24 13:58N 46°57' E 032°00'0 0.0
2017-Nov-24 13:28N 46°57' E 032°00'0 0.0
2017-Nov-24 12:58N 46°57' E 032°00'0 0.0
2017-Nov-24 12:28N 46°57' E 032°00'0 0.0
2017-Nov-24 11:58N 46°57' E 032°00'0 0.0
2017-Nov-24 11:28N 46°57' E 032°00'0 0.0
2017-Nov-24 10:58N 46°57' E 032°00'0 0.0
2017-Nov-24 10:28N 46°57' E 032°00'0 0.0
2017-Nov-24 09:58N 46°57' E 032°00'0 0.0
2017-Nov-24 09:28N 46°57' E 032°00'0 0.0
2017-Nov-24 08:58N 46°57' E 032°00'0 0.0
2017-Nov-24 08:28N 46°57' E 032°00'0 0.0
2017-Nov-24 07:58N 46°57' E 032°00'0 0.0
2017-Nov-24 07:28N 46°57' E 032°00'0 0.0
2017-Nov-24 06:58N 46°57' E 032°00'0 0.0
2017-Nov-24 06:28N 46°57' E 032°00'0 0.0
2017-Nov-24 05:58N 46°57' E 032°00'0 0.0
2017-Nov-24 05:28N 46°57' E 032°00'0 0.0
2017-Nov-24 04:58N 46°57' E 032°00'0 0.0
2017-Nov-24 04:28N 46°57' E 032°00'0 0.0
2017-Nov-24 03:58N 46°57' E 032°00'0 0.0
2017-Nov-24 03:28N 46°57' E 032°00'0 0.0
2017-Nov-24 02:58N 46°57' E 032°00'0 0.0
2017-Nov-24 02:28N 46°57' E 032°00'0 0.0
2017-Nov-24 01:58N 46°57' E 032°00'0 0.0
2017-Nov-24 01:28N 46°57' E 032°00'0 0.0
2017-Nov-24 00:58N 46°57' E 032°00'0 0.0
2017-Nov-24 00:28N 46°57' E 032°00'0 0.0
2017-Nov-23 23:58N 46°57' E 032°00'0 0.0
2017-Nov-23 23:28N 46°57' E 032°00'0 0.0
2017-Nov-23 22:58N 46°57' E 032°00'0 0.0
2017-Nov-23 22:25N 46°57' E 032°00'0 0.0
2017-Nov-23 21:58N 46°57' E 032°00'0 0.0
2017-Nov-23 21:25N 46°57' E 032°00'0 0.0
2017-Nov-23 20:58N 46°57' E 032°00'0 0.0
2017-Nov-23 20:25N 46°57' E 032°00'0 0.0
2017-Nov-23 19:55N 46°57' E 032°00'0 0.0
2017-Nov-23 19:28N 46°57' E 032°00'0 0.0
2017-Nov-23 18:58N 46°57' E 032°00'0 0.0
2017-Nov-23 18:28N 46°57' E 032°00'0 0.0
2017-Nov-23 17:58N 46°57' E 032°00'0 0.0
2017-Nov-23 17:28N 46°57' E 032°00'0 0.0
2017-Nov-23 16:58N 46°57' E 032°00'0 0.0
2017-Nov-23 16:28N 46°57' E 032°00'0 0.0
2017-Nov-23 15:58N 46°57' E 032°00'0 0.0
2017-Nov-23 15:28N 46°57' E 032°00'0 0.0
2017-Nov-23 14:58N 46°57' E 032°00'0 0.0
2017-Nov-23 14:25N 46°57' E 032°00'0 0.0
2017-Nov-23 13:58N 46°57' E 032°00'0 0.0
2017-Nov-23 13:28N 46°57' E 032°00'0 0.0
2017-Nov-23 12:58N 46°57' E 032°00'0 0.0
2017-Nov-23 12:28N 46°57' E 032°00'0 0.0
2017-Nov-23 11:58N 46°57' E 032°00'0 0.0
2017-Nov-23 11:28N 46°57' E 032°00'0 0.0
2017-Nov-23 10:58N 46°57' E 032°00'0 0.0
2017-Nov-23 10:28N 46°57' E 032°00'0 0.0
2017-Nov-23 09:58N 46°57' E 032°00'0 0.0
2017-Nov-23 09:28N 46°57' E 032°00'0 0.0
2017-Nov-23 08:58N 46°57' E 032°00'0 0.0
2017-Nov-23 08:28N 46°57' E 032°00'0 0.0
2017-Nov-23 07:58N 46°57' E 032°00'0 0.0
2017-Nov-23 07:28N 46°57' E 032°00'0 0.0
2017-Nov-23 06:58N 46°57' E 032°00'0 0.0
2017-Nov-23 06:28N 46°57' E 032°00'0 0.0
2017-Nov-23 05:58N 46°57' E 032°00'0 0.0
2017-Nov-23 05:28N 46°57' E 032°00'0 0.0
2017-Nov-23 04:58N 46°57' E 032°00'1 2.6
2017-Nov-23 04:30N 46°56' E 032°01'3 5.5
2017-Nov-23 04:00N 46°53' E 031°60'4 7.7
2017-Nov-23 03:30N 46°50' E 031°56'4 8.0
2017-Nov-23 03:00N 46°47' E 031°53'4 8.1
2017-Nov-23 02:30N 46°43' E 031°56'4 8.8
2017-Nov-23 02:00N 46°39' E 031°55'6 8.5
2017-Nov-23 01:20N 46°36' E 031°48'  
2017-Nov-17 18:27N 40°56' E 028°57'3 0.1
2017-Nov-16 21:06N 40°58' E 028°54'3 7.4
2017-Nov-16 20:44N 40°56' E 028°57'3 8.1
2017-Nov-16 20:22N 40°54' E 028°60'3 7.7
2017-Nov-16 20:00N 40°52' E 029°02'4 8.2
2017-Nov-16 19:30N 40°49' E 029°06'4 8.7
2017-Nov-16 19:00N 40°47' E 029°11'4 8.6
2017-Nov-16 18:30N 40°46' E 029°16'4 8.5
2017-Nov-16 18:00N 40°44' E 029°22'  
Track history (hours):
 
Tides and Currents Weather Stations Pressure Air Temp Water Temp Dewpoint Dewpoint Depression Visibility Wind Speed Wind Dir Waves Ship Positions

Maxal Raise

Last reported at 2017-Nov-24 21:09 UTC. Time now 2017-Nov-25 00:25 UTC.
Position N 46°36' E 031°42'.

Length 89 m; draft 5 m.

Type: Cargo ship. MMSI: 312297000.

Date/timePositionNaut miles runAvg speedWind from/ knotsBaromVisibWave heightAir tempDewpointWater temp
2017-Nov-24 21:09N 46°36' E 031°42'2 8.1
2017-Nov-24 20:51N 46°36' E 031°45'3 7.8
2017-Nov-24 20:30N 46°36' E 031°49'4 7.8
2017-Nov-24 20:00N 46°38' E 031°54'4 7.4
2017-Nov-24 19:30N 46°41' E 031°56'3 6.9
2017-Nov-24 19:00N 46°45' E 031°54'4 7.2
2017-Nov-24 18:30N 46°48' E 031°53'4 7.9
2017-Nov-24 18:00N 46°51' E 031°57'4 7.8
2017-Nov-24 17:30N 46°54' E 032°01'3 4.8
2017-Nov-24 16:58N 46°57' E 032°00'0 0.0
2017-Nov-24 16:28N 46°57' E 032°00'0 0.0
2017-Nov-24 15:58N 46°57' E 032°00'0 0.0
2017-Nov-24 15:28N 46°57' E 032°00'0 0.0
2017-Nov-24 14:58N 46°57' E 032°00'0 0.0
2017-Nov-24 14:28N 46°57' E 032°00'0 0.0
2017-Nov-24 13:58N 46°57' E 032°00'0 0.0
2017-Nov-24 13:28N 46°57' E 032°00'0 0.0
2017-Nov-24 12:58N 46°57' E 032°00'0 0.0
2017-Nov-24 12:28N 46°57' E 032°00'0 0.0
2017-Nov-24 11:58N 46°57' E 032°00'0 0.0
2017-Nov-24 11:28N 46°57' E 032°00'0 0.0
2017-Nov-24 10:58N 46°57' E 032°00'0 0.0
2017-Nov-24 10:28N 46°57' E 032°00'0 0.0
2017-Nov-24 09:58N 46°57' E 032°00'0 0.0
2017-Nov-24 09:28N 46°57' E 032°00'0 0.0
2017-Nov-24 08:58N 46°57' E 032°00'0 0.0
2017-Nov-24 08:28N 46°57' E 032°00'0 0.0
2017-Nov-24 07:58N 46°57' E 032°00'0 0.0
2017-Nov-24 07:28N 46°57' E 032°00'0 0.0
2017-Nov-24 06:58N 46°57' E 032°00'0 0.0
2017-Nov-24 06:28N 46°57' E 032°00'0 0.0
2017-Nov-24 05:58N 46°57' E 032°00'0 0.0
2017-Nov-24 05:28N 46°57' E 032°00'0 0.0
2017-Nov-24 04:58N 46°57' E 032°00'0 0.0
2017-Nov-24 04:28N 46°57' E 032°00'0 0.0
2017-Nov-24 03:58N 46°57' E 032°00'0 0.0
2017-Nov-24 03:28N 46°57' E 032°00'0 0.0
2017-Nov-24 02:58N 46°57' E 032°00'0 0.0
2017-Nov-24 02:28N 46°57' E 032°00'0 0.0
2017-Nov-24 01:58N 46°57' E 032°00'0 0.0
2017-Nov-24 01:28N 46°57' E 032°00'0 0.0
2017-Nov-24 00:58N 46°57' E 032°00'0 0.0
2017-Nov-24 00:28N 46°57' E 032°00'0 0.0
2017-Nov-23 23:58N 46°57' E 032°00'0 0.0
2017-Nov-23 23:28N 46°57' E 032°00'0 0.0
2017-Nov-23 22:58N 46°57' E 032°00'0 0.0
2017-Nov-23 22:25N 46°57' E 032°00'0 0.0
2017-Nov-23 21:58N 46°57' E 032°00'0 0.0
2017-Nov-23 21:25N 46°57' E 032°00'0 0.0
2017-Nov-23 20:58N 46°57' E 032°00'0 0.0
2017-Nov-23 20:25N 46°57' E 032°00'0 0.0
2017-Nov-23 19:55N 46°57' E 032°00'0 0.0
2017-Nov-23 19:28N 46°57' E 032°00'0 0.0
2017-Nov-23 18:58N 46°57' E 032°00'0 0.0
2017-Nov-23 18:28N 46°57' E 032°00'0 0.0
2017-Nov-23 17:58N 46°57' E 032°00'0 0.0
2017-Nov-23 17:28N 46°57' E 032°00'0 0.0
2017-Nov-23 16:58N 46°57' E 032°00'0 0.0
2017-Nov-23 16:28N 46°57' E 032°00'0 0.0
2017-Nov-23 15:58N 46°57' E 032°00'0 0.0
2017-Nov-23 15:28N 46°57' E 032°00'0 0.0
2017-Nov-23 14:58N 46°57' E 032°00'0 0.0
2017-Nov-23 14:25N 46°57' E 032°00'0 0.0
2017-Nov-23 13:58N 46°57' E 032°00'0 0.0
2017-Nov-23 13:28N 46°57' E 032°00'0 0.0
2017-Nov-23 12:58N 46°57' E 032°00'0 0.0
2017-Nov-23 12:28N 46°57' E 032°00'0 0.0
2017-Nov-23 11:58N 46°57' E 032°00'0 0.0
2017-Nov-23 11:28N 46°57' E 032°00'0 0.0
2017-Nov-23 10:58N 46°57' E 032°00'0 0.0
2017-Nov-23 10:28N 46°57' E 032°00'0 0.0
2017-Nov-23 09:58N 46°57' E 032°00'0 0.0
2017-Nov-23 09:28N 46°57' E 032°00'0 0.0
2017-Nov-23 08:58N 46°57' E 032°00'0 0.0
2017-Nov-23 08:28N 46°57' E 032°00'0 0.0
2017-Nov-23 07:58N 46°57' E 032°00'0 0.0
2017-Nov-23 07:28N 46°57' E 032°00'0 0.0
2017-Nov-23 06:58N 46°57' E 032°00'0 0.0
2017-Nov-23 06:28N 46°57' E 032°00'0 0.0
2017-Nov-23 05:58N 46°57' E 032°00'0 0.0
2017-Nov-23 05:28N 46°57' E 032°00'0 0.0
2017-Nov-23 04:58N 46°57' E 032°00'1 2.6
2017-Nov-23 04:30N 46°56' E 032°01'3 5.5
2017-Nov-23 04:00N 46°53' E 031°60'4 7.7
2017-Nov-23 03:30N 46°50' E 031°56'4 8.0
2017-Nov-23 03:00N 46°47' E 031°53'4 8.1
2017-Nov-23 02:30N 46°43' E 031°56'4 8.8
2017-Nov-23 02:00N 46°39' E 031°55'6 8.5
2017-Nov-23 01:20N 46°36' E 031°48'  
2017-Nov-17 18:27N 40°56' E 028°57'3 0.1
2017-Nov-16 21:06N 40°58' E 028°54'3 7.4
2017-Nov-16 20:44N 40°56' E 028°57'3 8.1
2017-Nov-16 20:22N 40°54' E 028°60'3 7.7
2017-Nov-16 20:00N 40°52' E 029°02'4 8.2
2017-Nov-16 19:30N 40°49' E 029°06'4 8.7
2017-Nov-16 19:00N 40°47' E 029°11'4 8.6
2017-Nov-16 18:30N 40°46' E 029°16'4 8.5
2017-Nov-16 18:00N 40°44' E 029°22'  

Dump ship's entire track history